Simmons Army Air Field
KFBG : now visible

Airfield :











YOU CAN JOIN US ON...

 
LOGIN :

Register | Disclaimer

   EN    FR    IT 

 









Legend :    VFR   Marginal VFR   IFR   Intensive IFR   Very Intensive IFR
Visi :
Ceiling :
>= 8 km
>= 3000ft
5 to 8 km
1000 to 3000 ft
1500m to 5 km
500 to 1000 ft
800 to 1500m
200 to 500 ft
< 800m
< 200 ft
Symbols :   Thunderstorms  Fog  Heavy snow  Heavy precipitations  Wind > 20 kt






- Airport Elevation : 244 ft


KFBG - Simmons Army Air Field

CURRENT METAR :
  • 142256Z AUTO 00000KT 10SM CLR 27/24 A2990 RMK AO2 RAB09E15 SLP126 P0001 T02710243

EXPIRED METARs :
  • 142215Z AUTO 00000KT 10SM FEW200 26/25 A2990 RMK AO2 RAB09E15 SLP126
  • 142156Z AUTO 00000KT 10SM CLR 25/25 A2990 RMK AO2 RAE44 SLP126 P0004 T02450245
  • 142116Z AUTO 22008KT 10SM -RA BKN060 24/24 A2991 RMK AO2 SLP129
  • 142056Z AUTO 23010KT 10SM -RA VCTS FEW060 26/26 A2993 RMK AO2 RAB46 SLP136 P0001 60002 T02560256 55005
  • 142046Z AUTO 22007KT 10SM -RA VCTS FEW120 27/24 A2993 RMK AO2 RAB46 SLP136
  • 142035Z AUTO 17005KT 10SM VCTS FEW020 27/24 A2993 RMK AO2 SLP136

TAF TAF KFBG
Valid from the 14 at 17:00 until the 15 at 23:00 UTC


141700Z 1417/1523 34004KT 9999 BKN040 QNH2989INS
TEMPO 1417/1502 01015G25KT 1600 TSRA BKN015 BKN030CB
BECMG 1508/1509 05004KT 6000 BR BKN005 BKN025 QNH2991INS
BECMG 1513/1514 34007KT 9999 NSW SCT025 BKN040 QNH2986INS
TEMPO 1521/1523 26015G25KT 6000 -TSRA BKN025 BKN040CB TX33/1419Z TN23/1509Z
KZDC FIR / North America



MET'MAP, your aeronautical weather chart ! - Copyright ORBIFLY December 2007 - Disclaimer

ORBIFLY MET'MAP TEAM :

Programming & Development : Alexandra Zaïnal
Concept & original design : Baudouin d'Aumeries
Assistance for programming : Marc-Olivier Méhu
Technical & hardware support : Manuel Goepfert

Contact : metmap@orbifly.com




SOURCES & CREDITS :

   NOAA       Earth
Advisory